EDT,Max TemperatureF,Mean TemperatureF,Min TemperatureF,Max Dew PointF,MeanDew PointF,Min DewpointF,Max Humidity, Mean Humidity, Min Humidity, Max Sea Level PressureIn, Mean Sea Level PressureIn, Min Sea Level PressureIn, Max VisibilityMiles, Mean VisibilityMiles, Min VisibilityMiles, Max Wind SpeedMPH, Mean Wind SpeedMPH, Max Gust SpeedMPH,PrecipitationIn, CloudCover, Events, WindDirDegrees
2013-7-1,87,80,73,75,72,70,91,82,63,30.04,29.93,29.84,10,9,2,18,8,36,1.20,5,Rain-Thunderstorm,191
2013-7-2,88,80,73,74,72,70,91,84,61,30.12,30.05,30.01,10,10,7,16,6,23,0.15,4,Rain,157
2013-7-3,89,81,73,75,73,70,91,77,59,30.15,30.12,30.09,10,10,10,20,6,29,0.06,1,Thunderstorm,143
2013-7-4,89,81,75,74,72,69,87,72,62,30.19,30.15,30.12,10,10,6,23,11,32,0.00,3,,153
2013-7-5,89,82,75,74,72,71,88,75,61,30.19,30.16,30.13,10,10,6,20,6,29,0.00,1,,135
2013-7-6,89,82,75,74,73,71,88,72,59,30.17,30.14,30.09,10,10,10,17,7,24,0.00,2,,138
2013-7-7,89,80,73,74,72,70,90,73,57,30.17,30.14,30.11,10,10,10,14,6,20,0.00,1,,129
2013-7-8,89,81,73,75,72,68,88,73,51,30.20,30.17,30.12,10,10,10,10,4,,0.00,1,,126
2013-7-9,90,82,75,75,71,69,89,72,52,30.20,30.15,30.10,10,10,10,12,2,17,0.00,1,,125
2013-7-10,90,80,71,75,71,68,90,72,53,30.12,30.07,29.99,10,10,10,13,4,18,0.00,2,,143
2013-7-11,93,83,75,73,71,68,85,70,48,30.03,29.97,29.90,10,10,10,14,6,18,0.00,1,Rain-Thunderstorm,182
2013-7-12,91,82,75,74,72,68,87,75,48,29.96,29.93,29.90,10,10,10,12,5,,0.01,2,Rain-Thunderstorm,208
2013-7-13,89,81,73,73,72,69,91,77,58,30.03,29.97,29.92,10,9,2,13,5,20,0.25,4,Rain-Thunderstorm,159
2013-7-14,87,80,73,73,71,69,91,76,57,30.15,30.09,30.00,10,10,10,16,4,21,0.01,3,Rain,133
2013-7-15,88,80,73,76,73,69,91,77,63,30.19,30.15,30.12,10,10,7,17,5,31,0.14,3,Rain-Thunderstorm,87
2013-7-16,88,83,78,75,73,72,85,72,61,30.22,30.20,30.16,10,10,10,15,8,22,0.00,3,,79
2013-7-17,89,82,75,75,73,71,88,72,59,30.23,30.18,30.12,10,10,10,12,5,16,0.00,2,,81
2013-7-18,90,80,73,74,71,69,88,74,57,30.15,30.12,30.07,10,10,10,12,3,,0.00,1,Rain,99
2013-7-19,91,81,73,72,70,68,87,70,50,30.14,30.10,30.06,10,10,10,16,4,22,0.00,3,Rain,201
2013-7-20,91,82,73,73,71,69,89,78,52,30.11,30.08,30.05,10,9,0,20,5,30,0.54,3,Rain-Thunderstorm,207
2013-7-21,93,84,75,74,71,68,87,74,47,30.12,30.07,30.04,10,10,8,13,6,17,0.03,2,Rain,223
2013-7-22,93,83,75,75,73,70,89,79,48,30.13,30.07,30.04,10,10,5,23,8,38,0.16,2,Rain,242
2013-7-23,93,84,77,74,72,69,84,75,55,30.04,29.99,29.93,10,10,10,21,9,28,0.05,2,,244
2013-7-24,89,82,75,74,72,68,89,77,57,29.93,29.89,29.83,10,10,4,16,9,23,0.10,4,Rain,251
2013-7-25,91,83,75,76,72,69,88,74,48,29.97,29.90,29.84,10,10,10,10,6,18,0.00,3,,267
2013-7-26,91,83,75,77,74,72,87,74,53,30.03,30.00,29.95,10,10,10,12,3,,0.00,1,,88
2013-7-27,93,83,75,76,72,67,94,79,44,30.01,29.97,29.90,10,8,2,12,2,,0.48,2,Rain-Thunderstorm,163
2013-7-28,91,82,73,75,73,70,94,81,52,30.06,30.00,29.93,10,8,0,12,4,,1.49,3,Fog-Rain-Thunderstorm,185
2013-7-29,90,81,72,75,72,69,91,73,53,30.17,30.10,30.04,10,10,10,13,3,17,0.00,1,,166
2013-7-30,91,84,77,78,74,72,88,74,57,30.18,30.15,30.12,10,10,10,10,3,,0.03,1,Rain-Thunderstorm,171
2013-7-31,91,82,75,76,73,71,94,83,55,30.14,30.09,30.06,10,9,2,12,2,21,0.40,3,Rain-Thunderstorm,187